sensor_id;sensor_type;location;lat;lon;timestamp;pressure;altitude;pressure_sealevel;temperature;humidity
72721;BME280;60835;50.974;10.322;2023-10-13T00:01:34;97316.16;;;16.90;100.00
72721;BME280;60835;50.974;10.322;2023-10-13T00:04:01;97308.81;;;16.85;100.00
72721;BME280;60835;50.974;10.322;2023-10-13T00:06:32;97316.97;;;16.90;100.00
72721;BME280;60835;50.974;10.322;2023-10-13T00:08:58;97326.63;;;16.91;100.00
72721;BME280;60835;50.974;10.322;2023-10-13T00:11:25;97322.91;;;16.92;100.00
72721;BME280;60835;50.974;10.322;2023-10-13T00:13:53;97326.34;;;16.99;100.00
72721;BME280;60835;50.974;10.322;2023-10-13T00:16:21;97324.25;;;17.01;100.00
72721;BME280;60835;50.974;10.322;2023-10-13T00:18:49;97335.97;;;17.00;100.00
72721;BME280;60835;50.974;10.322;2023-10-13T00:21:17;97321.44;;;16.96;100.00
72721;BME280;60835;50.974;10.322;2023-10-13T00:23:58;97322.75;;;17.05;100.00
72721;BME280;60835;50.974;10.322;2023-10-13T00:26:28;97334.66;;;17.10;100.00
72721;BME280;60835;50.974;10.322;2023-10-13T00:29:00;97332.28;;;17.01;100.00
72721;BME280;60835;50.974;10.322;2023-10-13T00:31:47;97322.31;;;17.09;100.00
72721;BME280;60835;50.974;10.322;2023-10-13T00:34:15;97309.78;;;16.91;100.00
72721;BME280;60835;50.974;10.322;2023-10-13T00:36:54;97323.66;;;16.99;100.00
72721;BME280;60835;50.974;10.322;2023-10-13T00:39:45;97333.16;;;16.95;100.00
72721;BME280;60835;50.974;10.322;2023-10-13T00:42:14;97306.88;;;16.92;100.00
72721;BME280;60835;50.974;10.322;2023-10-13T00:44:46;97282.69;;;16.87;100.00
72721;BME280;60835;50.974;10.322;2023-10-13T00:47:16;97305.69;;;16.88;100.00
72721;BME280;60835;50.974;10.322;2023-10-13T00:50:03;97287.28;;;16.80;100.00
72721;BME280;60835;50.974;10.322;2023-10-13T00:52:31;97286.41;;;16.86;100.00
72721;BME280;60835;50.974;10.322;2023-10-13T00:55:01;97289.28;;;16.85;100.00
72721;BME280;60835;50.974;10.322;2023-10-13T00:57:28;97283.25;;;16.71;100.00
72721;BME280;60835;50.974;10.322;2023-10-13T00:59:57;97279.13;;;16.75;100.00
72721;BME280;60835;50.974;10.322;2023-10-13T01:02:24;97269.63;;;16.79;100.00
72721;BME280;60835;50.974;10.322;2023-10-13T01:05:03;97258.94;;;16.79;100.00
72721;BME280;60835;50.974;10.322;2023-10-13T01:07:30;97267.84;;;16.91;100.00
72721;BME280;60835;50.974;10.322;2023-10-13T01:09:57;97271.84;;;16.82;100.00
72721;BME280;60835;50.974;10.322;2023-10-13T01:12:23;97265.91;;;16.80;100.00
72721;BME280;60835;50.974;10.322;2023-10-13T01:14:51;97277.34;;;16.87;100.00
72721;BME280;60835;50.974;10.322;2023-10-13T01:17:17;97280.84;;;16.88;100.00
72721;BME280;60835;50.974;10.322;2023-10-13T01:19:44;97280.16;;;16.92;100.00
72721;BME280;60835;50.974;10.322;2023-10-13T01:22:12;97261.75;;;16.84;100.00
72721;BME280;60835;50.974;10.322;2023-10-13T01:24:39;97256.69;;;16.94;100.00
72721;BME280;60835;50.974;10.322;2023-10-13T01:27:06;97274.75;;;16.99;100.00
72721;BME280;60835;50.974;10.322;2023-10-13T01:29:47;97282.19;;;16.97;100.00
72721;BME280;60835;50.974;10.322;2023-10-13T01:32:17;97285.22;;;17.00;100.00
72721;BME280;60835;50.974;10.322;2023-10-13T01:34:44;97288.72;;;17.01;100.00
72721;BME280;60835;50.974;10.322;2023-10-13T01:37:13;97292.63;;;16.98;100.00
72721;BME280;60835;50.974;10.322;2023-10-13T01:39:42;97258.50;;;16.82;100.00
72721;BME280;60835;50.974;10.322;2023-10-13T01:42:13;97270.69;;;16.96;100.00
72721;BME280;60835;50.974;10.322;2023-10-13T01:44:46;97284.19;;;17.01;100.00
72721;BME280;60835;50.974;10.322;2023-10-13T01:47:12;97298.28;;;17.09;100.00
72721;BME280;60835;50.974;10.322;2023-10-13T01:49:39;97303.75;;;17.14;100.00
72721;BME280;60835;50.974;10.322;2023-10-13T01:52:14;97308.53;;;17.12;100.00
72721;BME280;60835;50.974;10.322;2023-10-13T01:54:46;97320.25;;;17.11;100.00
72721;BME280;60835;50.974;10.322;2023-10-13T01:57:12;97320.25;;;17.11;100.00
72721;BME280;60835;50.974;10.322;2023-10-13T01:59:47;97318.19;;;17.13;100.00
72721;BME280;60835;50.974;10.322;2023-10-13T02:02:15;97302.16;;;17.13;100.00
72721;BME280;60835;50.974;10.322;2023-10-13T02:04:46;97285.34;;;17.05;100.00
72721;BME280;60835;50.974;10.322;2023-10-13T02:07:23;97305.41;;;17.15;100.00
72721;BME280;60835;50.974;10.322;2023-10-13T02:09:56;97306.09;;;17.10;100.00
72721;BME280;60835;50.974;10.322;2023-10-13T02:12:23;97292.34;;;17.07;100.00
72721;BME280;60835;50.974;10.322;2023-10-13T02:14:55;97294.00;;;17.08;100.00
72721;BME280;60835;50.974;10.322;2023-10-13T02:17:22;97299.91;;;17.10;100.00
72721;BME280;60835;50.974;10.322;2023-10-13T02:19:53;97274.66;;;17.05;100.00
72721;BME280;60835;50.974;10.322;2023-10-13T02:22:20;97283.66;;;17.11;100.00
72721;BME280;60835;50.974;10.322;2023-10-13T02:24:55;97273.19;;;17.10;100.00
72721;BME280;60835;50.974;10.322;2023-10-13T02:27:28;97262.38;;;17.04;100.00
72721;BME280;60835;50.974;10.322;2023-10-13T02:29:55;97264.41;;;17.02;100.00
72721;BME280;60835;50.974;10.322;2023-10-13T02:32:25;97254.78;;;17.01;100.00
72721;BME280;60835;50.974;10.322;2023-10-13T02:34:53;97249.31;;;16.96;100.00
72721;BME280;60835;50.974;10.322;2023-10-13T02:37:20;97254.13;;;17.06;100.00
72721;BME280;60835;50.974;10.322;2023-10-13T02:39:47;97246.34;;;17.04;100.00
72721;BME280;60835;50.974;10.322;2023-10-13T02:42:13;97250.03;;;17.03;100.00
72721;BME280;60835;50.974;10.322;2023-10-13T02:44:50;97252.47;;;17.05;100.00
72721;BME280;60835;50.974;10.322;2023-10-13T02:47:17;97245.13;;;17.00;100.00
72721;BME280;60835;50.974;10.322;2023-10-13T02:49:46;97252.47;;;17.05;100.00
72721;BME280;60835;50.974;10.322;2023-10-13T02:52:14;97260.28;;;17.07;100.00
72721;BME280;60835;50.974;10.322;2023-10-13T02:54:42;97256.09;;;17.11;100.00
72721;BME280;60835;50.974;10.322;2023-10-13T02:57:14;97247.94;;;17.05;100.00
72721;BME280;60835;50.974;10.322;2023-10-13T02:59:45;97252.84;;;17.09;100.00
72721;BME280;60835;50.974;10.322;2023-10-13T03:02:15;97261.09;;;17.07;100.00
72721;BME280;60835;50.974;10.322;2023-10-13T03:04:57;97252.03;;;17.08;100.00
72721;BME280;60835;50.974;10.322;2023-10-13T03:07:44;97253.09;;;17.07;100.00
72721;BME280;60835;50.974;10.322;2023-10-13T03:10:10;97258.19;;;17.09;100.00
72721;BME280;60835;50.974;10.322;2023-10-13T03:12:41;97259.41;;;17.13;100.00
72721;BME280;60835;50.974;10.322;2023-10-13T03:15:09;97250.75;;;17.11;100.00
72721;BME280;60835;50.974;10.322;2023-10-13T03:17:38;97266.34;;;17.14;100.00
72721;BME280;60835;50.974;10.322;2023-10-13T03:20:14;97265.84;;;17.23;100.00
72721;BME280;60835;50.974;10.322;2023-10-13T03:22:52;97272.47;;;17.21;100.00
72721;BME280;60835;50.974;10.322;2023-10-13T03:25:19;97266.94;;;17.16;100.00
72721;BME280;60835;50.974;10.322;2023-10-13T03:27:55;97269.56;;;17.22;100.00
72721;BME280;60835;50.974;10.322;2023-10-13T03:30:25;97276.16;;;17.20;100.00
72721;BME280;60835;50.974;10.322;2023-10-13T03:33:03;97269.16;;;17.19;100.00
72721;BME280;60835;50.974;10.322;2023-10-13T03:35:34;97278.31;;;17.11;100.00
72721;BME280;60835;50.974;10.322;2023-10-13T03:38:04;97275.03;;;17.09;100.00
72721;BME280;60835;50.974;10.322;2023-10-13T03:40:37;97271.84;;;17.00;100.00
72721;BME280;60835;50.974;10.322;2023-10-13T03:43:05;97270.38;;;17.04;100.00
72721;BME280;60835;50.974;10.322;2023-10-13T03:45:40;97272.09;;;16.99;100.00
72721;BME280;60835;50.974;10.322;2023-10-13T03:48:13;97262.81;;;17.01;100.00
72721;BME280;60835;50.974;10.322;2023-10-13T03:50:58;97255.16;;;17.05;100.00
72721;BME280;60835;50.974;10.322;2023-10-13T03:53:35;97249.44;;;17.01;100.00
72721;BME280;60835;50.974;10.322;2023-10-13T03:56:04;97252.13;;;17.01;100.00
72721;BME280;60835;50.974;10.322;2023-10-13T03:58:58;97243.69;;;16.86;100.00
72721;BME280;60835;50.974;10.322;2023-10-13T04:01:36;97234.88;;;16.97;100.00
72721;BME280;60835;50.974;10.322;2023-10-13T04:04:19;97236.28;;;17.00;100.00
72721;BME280;60835;50.974;10.322;2023-10-13T04:07:11;97238.63;;;16.96;100.00
72721;BME280;60835;50.974;10.322;2023-10-13T04:09:38;97241.88;;;16.98;100.00
72721;BME280;60835;50.974;10.322;2023-10-13T04:12:14;97236.38;;;16.93;100.00
72721;BME280;60835;50.974;10.322;2023-10-13T04:14:59;97232.44;;;16.96;100.00
72721;BME280;60835;50.974;10.322;2023-10-13T04:17:44;97224.97;;;17.04;100.00
72721;BME280;60835;50.974;10.322;2023-10-13T04:20:13;97235.72;;;16.98;100.00
72721;BME280;60835;50.974;10.322;2023-10-13T04:22:41;97222.16;;;16.99;100.00
72721;BME280;60835;50.974;10.322;2023-10-13T04:25:27;97224.97;;;17.04;100.00
72721;BME280;60835;50.974;10.322;2023-10-13T04:28:14;97214.41;;;17.10;100.00
72721;BME280;60835;50.974;10.322;2023-10-13T04:30:44;97209.66;;;17.12;100.00
72721;BME280;60835;50.974;10.322;2023-10-13T04:33:14;97200.59;;;17.13;100.00
72721;BME280;60835;50.974;10.322;2023-10-13T04:36:15;97213.28;;;17.17;100.00
72721;BME280;60835;50.974;10.322;2023-10-13T04:38:58;97231.25;;;17.28;100.00
72721;BME280;60835;50.974;10.322;2023-10-13T04:41:40;97241.56;;;17.25;100.00
72721;BME280;60835;50.974;10.322;2023-10-13T04:44:16;97238.19;;;17.29;100.00
72721;BME280;60835;50.974;10.322;2023-10-13T04:46:49;97238.81;;;17.31;100.00
72721;BME280;60835;50.974;10.322;2023-10-13T04:49:16;97235.75;;;17.28;100.00
72721;BME280;60835;50.974;10.322;2023-10-13T04:51:57;97239.91;;;17.24;100.00
72721;BME280;60835;50.974;10.322;2023-10-13T04:54:28;97232.19;;;17.34;100.00
72721;BME280;60835;50.974;10.322;2023-10-13T04:57:18;97222.41;;;17.28;100.00
72721;BME280;60835;50.974;10.322;2023-10-13T05:00:05;97225.06;;;17.28;100.00
72721;BME280;60835;50.974;10.322;2023-10-13T05:02:37;97237.41;;;17.29;100.00
72721;BME280;60835;50.974;10.322;2023-10-13T05:05:13;97241.09;;;17.28;100.00
72721;BME280;60835;50.974;10.322;2023-10-13T05:07:41;97234.56;;;17.24;100.00
72721;BME280;60835;50.974;10.322;2023-10-13T05:10:27;97230.03;;;17.24;100.00
72721;BME280;60835;50.974;10.322;2023-10-13T05:13:12;97225.22;;;17.33;100.00
72721;BME280;60835;50.974;10.322;2023-10-13T05:15:58;97227.28;;;17.31;100.00
72721;BME280;60835;50.974;10.322;2023-10-13T05:18:43;97222.97;;;17.30;100.00
72721;BME280;60835;50.974;10.322;2023-10-13T05:21:29;97220.16;;;17.25;100.00
72721;BME280;60835;50.974;10.322;2023-10-13T05:24:14;97233.22;;;17.33;100.00
72721;BME280;60835;50.974;10.322;2023-10-13T05:26:59;97238.56;;;17.33;100.00
72721;BME280;60835;50.974;10.322;2023-10-13T05:29:46;97239.53;;;17.38;100.00
72721;BME280;60835;50.974;10.322;2023-10-13T05:32:32;97236.47;;;17.35;100.00
72721;BME280;60835;50.974;10.322;2023-10-13T05:35:20;97235.00;;;17.39;100.00
72721;BME280;60835;50.974;10.322;2023-10-13T05:38:05;97238.84;;;17.43;100.00
72721;BME280;60835;50.974;10.322;2023-10-13T05:40:56;97235.13;;;17.44;100.00
72721;BME280;60835;50.974;10.322;2023-10-13T05:43:47;97232.47;;;17.44;100.00
72721;BME280;60835;50.974;10.322;2023-10-13T05:46:33;97233.41;;;17.49;100.00
72721;BME280;60835;50.974;10.322;2023-10-13T05:49:07;97237.72;;;17.50;100.00
72721;BME280;60835;50.974;10.322;2023-10-13T05:51:36;97245.72;;;17.50;100.00
72721;BME280;60835;50.974;10.322;2023-10-13T05:54:06;97251.31;;;17.49;100.00
72721;BME280;60835;50.974;10.322;2023-10-13T05:56:44;97249.91;;;17.46;100.00
72721;BME280;60835;50.974;10.322;2023-10-13T05:59:30;97230.31;;;17.34;100.00
72721;BME280;60835;50.974;10.322;2023-10-13T06:02:18;97247.28;;;17.58;100.00
72721;BME280;60835;50.974;10.322;2023-10-13T06:05:06;97244.63;;;17.58;100.00
72721;BME280;60835;50.974;10.322;2023-10-13T06:07:52;97239.88;;;17.60;100.00
72721;BME280;60835;50.974;10.322;2023-10-13T06:10:38;97241.03;;;17.64;100.00
72721;BME280;60835;50.974;10.322;2023-10-13T06:13:24;97241.88;;;17.64;100.00
72721;BME280;60835;50.974;10.322;2023-10-13T06:16:10;97230.59;;;17.74;100.00
72721;BME280;60835;50.974;10.322;2023-10-13T06:18:56;97240.84;;;17.77;100.00
72721;BME280;60835;50.974;10.322;2023-10-13T06:21:42;97240.41;;;17.80;100.00
72721;BME280;60835;50.974;10.322;2023-10-13T06:24:28;97231.09;;;17.83;100.00
72721;BME280;60835;50.974;10.322;2023-10-13T06:27:15;97239.63;;;17.91;100.00
72721;BME280;60835;50.974;10.322;2023-10-13T06:30:03;97247.19;;;17.94;100.00
72721;BME280;60835;50.974;10.322;2023-10-13T06:32:31;97257.19;;;17.99;100.00
72721;BME280;60835;50.974;10.322;2023-10-13T06:35:00;97241.38;;;17.97;100.00
72721;BME280;60835;50.974;10.322;2023-10-13T06:37:45;97254.53;;;17.99;100.00
72721;BME280;60835;50.974;10.322;2023-10-13T06:40:12;97265.59;;;18.02;100.00
72721;BME280;60835;50.974;10.322;2023-10-13T06:42:53;97257.31;;;18.04;100.00
72721;BME280;60835;50.974;10.322;2023-10-13T06:45:21;97260.81;;;18.04;100.00
72721;BME280;60835;50.974;10.322;2023-10-13T06:47:48;97251.16;;;18.03;100.00
72721;BME280;60835;50.974;10.322;2023-10-13T06:50:18;97262.81;;;18.09;100.00
72721;BME280;60835;50.974;10.322;2023-10-13T06:52:51;97255.59;;;18.09;100.00
72721;BME280;60835;50.974;10.322;2023-10-13T06:55:22;97250.16;;;18.16;100.00
72721;BME280;60835;50.974;10.322;2023-10-13T06:57:55;97258.06;;;18.22;100.00
72721;BME280;60835;50.974;10.322;2023-10-13T07:00:27;97263.41;;;18.22;100.00
72721;BME280;60835;50.974;10.322;2023-10-13T07:02:56;97282.41;;;18.33;100.00
72721;BME280;60835;50.974;10.322;2023-10-13T07:05:37;97285.44;;;18.36;100.00
72721;BME280;60835;50.974;10.322;2023-10-13T07:08:09;97287.88;;;18.26;100.00
72721;BME280;60835;50.974;10.322;2023-10-13T07:10:38;97284.03;;;18.34;100.00
72721;BME280;60835;50.974;10.322;2023-10-13T07:13:23;97286.72;;;18.34;100.00
72721;BME280;60835;50.974;10.322;2023-10-13T07:15:55;97300.47;;;18.37;100.00
72721;BME280;60835;50.974;10.322;2023-10-13T07:18:40;97291.25;;;18.33;100.00
72721;BME280;60835;50.974;10.322;2023-10-13T07:21:16;97307.69;;;18.48;100.00
72721;BME280;60835;50.974;10.322;2023-10-13T07:23:43;97298.88;;;18.48;100.00
72721;BME280;60835;50.974;10.322;2023-10-13T07:26:22;97309.34;;;18.49;100.00
72721;BME280;60835;50.974;10.322;2023-10-13T07:28:49;97310.16;;;18.50;100.00
72721;BME280;60835;50.974;10.322;2023-10-13T07:31:19;97321.00;;;18.55;100.00
72721;BME280;60835;50.974;10.322;2023-10-13T07:33:47;97325.41;;;18.49;100.00
72721;BME280;60835;50.974;10.322;2023-10-13T07:36:13;97325.03;;;18.46;100.00
72721;BME280;60835;50.974;10.322;2023-10-13T07:38:46;97323.69;;;18.55;100.00
72721;BME280;60835;50.974;10.322;2023-10-13T07:41:28;97318.41;;;18.48;100.00
72721;BME280;60835;50.974;10.322;2023-10-13T07:43:57;97305.16;;;18.53;100.00
72721;BME280;60835;50.974;10.322;2023-10-13T07:46:26;97285.91;;;18.45;100.00
72721;BME280;60835;50.974;10.322;2023-10-13T07:48:58;97296.63;;;18.45;100.00
72721;BME280;60835;50.974;10.322;2023-10-13T07:51:35;97280.13;;;18.48;100.00
72721;BME280;60835;50.974;10.322;2023-10-13T07:54:13;97273.00;;;18.42;100.00
72721;BME280;60835;50.974;10.322;2023-10-13T07:56:41;97280.56;;;18.45;100.00
72721;BME280;60835;50.974;10.322;2023-10-13T07:59:08;97260.31;;;18.49;100.00
72721;BME280;60835;50.974;10.322;2023-10-13T08:01:36;97278.94;;;18.67;100.00
72721;BME280;60835;50.974;10.322;2023-10-13T08:04:03;97269.88;;;18.68;100.00
72721;BME280;60835;50.974;10.322;2023-10-13T08:06:36;97272.66;;;18.73;100.00
72721;BME280;60835;50.974;10.322;2023-10-13T08:09:03;97294.53;;;18.93;100.00
72721;BME280;60835;50.974;10.322;2023-10-13T08:11:48;97289.97;;;19.17;100.00
72721;BME280;60835;50.974;10.322;2023-10-13T08:14:15;97290.56;;;19.07;100.00
72721;BME280;60835;50.974;10.322;2023-10-13T08:17:01;97316.31;;;19.20;100.00
72721;BME280;60835;50.974;10.322;2023-10-13T08:19:33;97319.13;;;19.13;100.00
72721;BME280;60835;50.974;10.322;2023-10-13T08:22:13;97315.63;;;19.13;100.00
72721;BME280;60835;50.974;10.322;2023-10-13T08:24:42;97321.66;;;19.20;100.00
72721;BME280;60835;50.974;10.322;2023-10-13T08:27:09;97308.38;;;19.25;100.00
72721;BME280;60835;50.974;10.322;2023-10-13T08:29:41;97328.53;;;19.27;100.00
72721;BME280;60835;50.974;10.322;2023-10-13T08:32:24;97313.19;;;19.11;100.00
72721;BME280;60835;50.974;10.322;2023-10-13T08:34:55;97330.19;;;19.28;100.00
72721;BME280;60835;50.974;10.322;2023-10-13T08:37:22;97344.44;;;19.40;100.00
72721;BME280;60835;50.974;10.322;2023-10-13T08:39:49;97349.19;;;19.38;100.00
72721;BME280;60835;50.974;10.322;2023-10-13T08:42:51;97346.41;;;19.22;100.00
72721;BME280;60835;50.974;10.322;2023-10-13T08:45:41;97345.13;;;19.24;100.00
72721;BME280;60835;50.974;10.322;2023-10-13T08:48:10;97341.75;;;19.40;100.00
72721;BME280;60835;50.974;10.322;2023-10-13T08:50:43;97370.63;;;19.50;100.00
72721;BME280;60835;50.974;10.322;2023-10-13T08:53:42;97360.78;;;19.67;100.00
72721;BME280;60835;50.974;10.322;2023-10-13T08:56:18;97382.41;;;19.61;100.00
72721;BME280;60835;50.974;10.322;2023-10-13T08:58:58;97385.06;;;19.72;100.00
72721;BME280;60835;50.974;10.322;2023-10-13T09:01:30;97388.03;;;19.87;100.00
72721;BME280;60835;50.974;10.322;2023-10-13T09:04:16;97389.81;;;19.82;100.00
72721;BME280;60835;50.974;10.322;2023-10-13T09:06:55;97423.25;;;19.91;100.00
72721;BME280;60835;50.974;10.322;2023-10-13T09:12:19;97424.59;;;20.17;100.00
72721;BME280;60835;50.974;10.322;2023-10-13T09:14:53;97422.94;;;20.16;100.00
72721;BME280;60835;50.974;10.322;2023-10-13T09:17:40;97452.78;;;20.42;100.00
72721;BME280;60835;50.974;10.322;2023-10-13T09:20:09;97461.31;;;20.39;100.00
72721;BME280;60835;50.974;10.322;2023-10-13T09:22:59;97446.50;;;20.37;100.00
72721;BME280;60835;50.974;10.322;2023-10-13T09:25:36;97468.44;;;21.23;100.00
72721;BME280;60835;50.974;10.322;2023-10-13T09:28:14;97536.44;;;21.69;100.00
72721;BME280;60835;50.974;10.322;2023-10-13T09:30:50;97543.94;;;21.17;100.00
72721;BME280;60835;50.974;10.322;2023-10-13T09:33:20;97539.72;;;21.54;100.00
72721;BME280;60835;50.974;10.322;2023-10-13T09:35:55;97537.50;;;21.68;100.00
72721;BME280;60835;50.974;10.322;2023-10-13T09:38:29;97542.81;;;21.46;100.00
72721;BME280;60835;50.974;10.322;2023-10-13T09:40:58;97544.75;;;21.67;100.00
72721;BME280;60835;50.974;10.322;2023-10-13T09:43:28;97552.00;;;21.83;100.00
72721;BME280;60835;50.974;10.322;2023-10-13T09:46:01;97569.19;;;21.16;100.00
72721;BME280;60835;50.974;10.322;2023-10-13T09:48:38;97546.25;;;21.42;100.00
72721;BME280;60835;50.974;10.322;2023-10-13T09:51:16;97574.13;;;21.85;100.00
72721;BME280;60835;50.974;10.322;2023-10-13T09:53:54;97599.81;;;22.10;100.00
72721;BME280;60835;50.974;10.322;2023-10-13T09:56:50;97600.44;;;22.55;100.00
72721;BME280;60835;50.974;10.322;2023-10-13T09:59:25;97604.56;;;23.91;100.00
72721;BME280;60835;50.974;10.322;2023-10-13T10:02:05;97641.59;;;22.51;100.00
72721;BME280;60835;50.974;10.322;2023-10-13T10:04:52;97632.78;;;22.55;100.00
72721;BME280;60835;50.974;10.322;2023-10-13T10:07:26;97639.19;;;22.32;100.00
72721;BME280;60835;50.974;10.322;2023-10-13T10:09:57;97621.28;;;22.81;100.00
72721;BME280;60835;50.974;10.322;2023-10-13T10:15:33;97627.91;;;22.52;100.00
72721;BME280;60835;50.974;10.322;2023-10-13T10:18:02;97631.13;;;22.92;100.00
72721;BME280;60835;50.974;10.322;2023-10-13T10:20:31;97627.97;;;24.12;100.00
72721;BME280;60835;50.974;10.322;2023-10-13T10:23:28;97687.63;;;23.47;100.00
72721;BME280;60835;50.974;10.322;2023-10-13T10:26:12;97663.44;;;24.68;100.00
72721;BME280;60835;50.974;10.322;2023-10-13T10:28:46;97677.88;;;23.46;100.00
72721;BME280;60835;50.974;10.322;2023-10-13T10:31:13;97670.78;;;24.72;100.00
72721;BME280;60835;50.974;10.322;2023-10-13T10:33:46;97676.16;;;25.14;100.00
72721;BME280;60835;50.974;10.322;2023-10-13T10:36:29;97666.34;;;24.98;100.00
72721;BME280;60835;50.974;10.322;2023-10-13T10:38:57;97557.06;;;25.39;100.00
72721;BME280;60835;50.974;10.322;2023-10-13T10:41:29;97514.78;;;24.83;100.00
72721;BME280;60835;50.974;10.322;2023-10-13T10:44:14;97453.47;;;26.28;100.00
72721;BME280;60835;50.974;10.322;2023-10-13T10:46:51;98244.19;;;26.66;100.00
72721;BME280;60835;50.974;10.322;2023-10-13T10:49:27;98293.28;;;25.53;100.00
72721;BME280;60835;50.974;10.322;2023-10-13T10:52:00;98233.19;;;26.83;100.00
72721;BME280;60835;50.974;10.322;2023-10-13T10:54:34;98268.28;;;26.57;100.00
72721;BME280;60835;50.974;10.322;2023-10-13T10:57:01;98227.34;;;25.95;100.00
72721;BME280;60835;50.974;10.322;2023-10-13T10:59:45;98192.13;;;25.69;100.00
72721;BME280;60835;50.974;10.322;2023-10-13T11:02:12;98121.97;;;25.67;100.00
72721;BME280;60835;50.974;10.322;2023-10-13T11:04:53;98144.31;;;24.61;100.00
72721;BME280;60835;50.974;10.322;2023-10-13T11:07:23;98068.38;;;24.89;100.00
72721;BME280;60835;50.974;10.322;2023-10-13T11:09:50;98153.09;;;25.65;100.00
72721;BME280;60835;50.974;10.322;2023-10-13T11:12:19;98141.69;;;25.63;100.00
72721;BME280;60835;50.974;10.322;2023-10-13T11:15:04;98161.19;;;25.11;100.00
72721;BME280;60835;50.974;10.322;2023-10-13T11:17:39;98132.38;;;25.27;100.00
72721;BME280;60835;50.974;10.322;2023-10-13T11:20:16;98126.81;;;25.97;100.00
72721;BME280;60835;50.974;10.322;2023-10-13T11:22:47;98165.78;;;25.37;100.00
72721;BME280;60835;50.974;10.322;2023-10-13T11:25:25;98164.69;;;25.33;100.00
72721;BME280;60835;50.974;10.322;2023-10-13T11:28:12;98145.38;;;25.52;100.00
72721;BME280;60835;50.974;10.322;2023-10-13T11:31:08;98123.38;;;25.21;100.00
72721;BME280;60835;50.974;10.322;2023-10-13T11:33:43;98152.81;;;25.66;100.00
72721;BME280;60835;50.974;10.322;2023-10-13T11:36:13;98184.41;;;26.56;100.00
72721;BME280;60835;50.974;10.322;2023-10-13T11:38:49;98185.97;;;26.42;100.00
72721;BME280;60835;50.974;10.322;2023-10-13T11:41:19;98150.84;;;25.08;100.00
72721;BME280;60835;50.974;10.322;2023-10-13T11:43:52;98077.63;;;24.71;100.00
72721;BME280;60835;50.974;10.322;2023-10-13T11:46:22;98118.69;;;25.38;100.00
72721;BME280;60835;50.974;10.322;2023-10-13T11:49:09;98139.03;;;25.68;100.00
72721;BME280;60835;50.974;10.322;2023-10-13T11:51:47;98157.53;;;25.76;100.00
72721;BME280;60835;50.974;10.322;2023-10-13T11:54:17;98064.41;;;24.32;100.00
72721;BME280;60835;50.974;10.322;2023-10-13T11:56:46;98047.41;;;25.01;100.00
72721;BME280;60835;50.974;10.322;2023-10-13T11:59:13;98145.00;;;25.70;100.00
72721;BME280;60835;50.974;10.322;2023-10-13T12:01:49;98051.53;;;24.39;100.00
72721;BME280;60835;50.974;10.322;2023-10-13T12:04:36;98045.66;;;24.90;100.00
72721;BME280;60835;50.974;10.322;2023-10-13T12:07:19;98148.63;;;25.80;100.00
72721;BME280;60835;50.974;10.322;2023-10-13T12:09:49;98113.78;;;25.35;100.00
72721;BME280;60835;50.974;10.322;2023-10-13T12:12:23;98177.22;;;25.98;100.00
72721;BME280;60835;50.974;10.322;2023-10-13T12:14:50;98074.03;;;24.66;100.00
72721;BME280;60835;50.974;10.322;2023-10-13T12:17:29;98118.91;;;25.59;100.00
72721;BME280;60835;50.974;10.322;2023-10-13T12:20:06;98155.97;;;25.85;100.00
72721;BME280;60835;50.974;10.322;2023-10-13T12:22:37;98141.06;;;25.56;100.00
72721;BME280;60835;50.974;10.322;2023-10-13T12:25:09;98097.94;;;24.96;100.00
72721;BME280;60835;50.974;10.322;2023-10-13T12:27:53;98032.13;;;24.68;100.00
72721;BME280;60835;50.974;10.322;2023-10-13T12:30:24;98081.16;;;24.94;100.00
72721;BME280;60835;50.974;10.322;2023-10-13T12:33:16;98090.09;;;24.51;100.00
72721;BME280;60835;50.974;10.322;2023-10-13T12:35:55;98116.75;;;24.64;100.00
72721;BME280;60835;50.974;10.322;2023-10-13T12:38:31;98091.56;;;24.42;100.00
72721;BME280;60835;50.974;10.322;2023-10-13T12:41:13;98091.69;;;24.08;100.00
72721;BME280;60835;50.974;10.322;2023-10-13T12:44:02;98073.88;;;24.12;100.00
72721;BME280;60835;50.974;10.322;2023-10-13T12:46:48;98134.22;;;24.35;100.00
72721;BME280;60835;50.974;10.322;2023-10-13T12:49:34;98143.03;;;24.08;100.00
72721;BME280;60835;50.974;10.322;2023-10-13T12:52:11;98138.66;;;24.07;100.00
72721;BME280;60835;50.974;10.322;2023-10-13T12:54:47;98164.88;;;23.90;100.00
72721;BME280;60835;50.974;10.322;2023-10-13T12:57:27;98155.69;;;23.58;100.00
72721;BME280;60835;50.974;10.322;2023-10-13T12:59:54;98173.13;;;24.00;100.00
72721;BME280;60835;50.974;10.322;2023-10-13T13:02:25;98191.03;;;23.73;100.00
72721;BME280;60835;50.974;10.322;2023-10-13T13:04:54;98179.09;;;23.69;100.00
72721;BME280;60835;50.974;10.322;2023-10-13T13:07:23;98179.75;;;23.76;100.00
72721;BME280;60835;50.974;10.322;2023-10-13T13:09:56;98166.72;;;23.56;100.00
72721;BME280;60835;50.974;10.322;2023-10-13T13:12:26;98144.88;;;23.58;100.00
72721;BME280;60835;50.974;10.322;2023-10-13T13:14:56;98166.81;;;23.78;100.00
72721;BME280;60835;50.974;10.322;2023-10-13T13:17:22;98161.66;;;23.60;100.00
72721;BME280;60835;50.974;10.322;2023-10-13T13:19:49;98146.22;;;23.72;100.00
72721;BME280;60835;50.974;10.322;2023-10-13T13:22:16;98173.38;;;23.99;100.00
72721;BME280;60835;50.974;10.322;2023-10-13T13:24:44;98157.81;;;23.89;100.00
72721;BME280;60835;50.974;10.322;2023-10-13T13:27:12;98156.84;;;23.79;100.00